sensor_id;sensor_type;location;lat;lon;timestamp;temperature;humidity
76567;DHT22;65428;53.194;6.132;2023-08-06T00:00:04;14.20;99.90
76567;DHT22;65428;53.194;6.132;2023-08-06T00:02:30;14.00;99.90
76567;DHT22;65428;53.194;6.132;2023-08-06T00:04:56;14.00;99.90
76567;DHT22;65428;53.194;6.132;2023-08-06T00:07:21;14.00;99.90
76567;DHT22;65428;53.194;6.132;2023-08-06T00:09:47;14.00;99.90
76567;DHT22;65428;53.194;6.132;2023-08-06T00:12:12;14.00;99.90
76567;DHT22;65428;53.194;6.132;2023-08-06T00:14:38;14.00;99.90
76567;DHT22;65428;53.194;6.132;2023-08-06T00:17:04;14.00;99.90
76567;DHT22;65428;53.194;6.132;2023-08-06T00:19:31;14.00;99.90
76567;DHT22;65428;53.194;6.132;2023-08-06T00:21:57;14.20;99.90
76567;DHT22;65428;53.194;6.132;2023-08-06T00:24:22;14.10;99.90
76567;DHT22;65428;53.194;6.132;2023-08-06T00:26:48;14.10;99.90
76567;DHT22;65428;53.194;6.132;2023-08-06T00:29:13;14.20;99.90
76567;DHT22;65428;53.194;6.132;2023-08-06T00:31:39;14.10;99.90
76567;DHT22;65428;53.194;6.132;2023-08-06T00:34:05;14.00;99.90
76567;DHT22;65428;53.194;6.132;2023-08-06T00:36:30;14.40;99.90
76567;DHT22;65428;53.194;6.132;2023-08-06T00:38:56;14.40;99.90
76567;DHT22;65428;53.194;6.132;2023-08-06T00:41:21;14.10;99.90
76567;DHT22;65428;53.194;6.132;2023-08-06T00:43:47;14.00;99.90
76567;DHT22;65428;53.194;6.132;2023-08-06T00:46:13;14.10;99.90
76567;DHT22;65428;53.194;6.132;2023-08-06T00:48:40;14.00;99.90
76567;DHT22;65428;53.194;6.132;2023-08-06T00:51:06;14.00;99.90
76567;DHT22;65428;53.194;6.132;2023-08-06T00:53:32;14.10;99.90
76567;DHT22;65428;53.194;6.132;2023-08-06T00:55:58;14.10;99.90
76567;DHT22;65428;53.194;6.132;2023-08-06T00:58:24;14.10;99.90
76567;DHT22;65428;53.194;6.132;2023-08-06T01:00:50;14.10;99.90
76567;DHT22;65428;53.194;6.132;2023-08-06T01:03:16;14.10;99.90
76567;DHT22;65428;53.194;6.132;2023-08-06T01:05:41;14.10;99.90
76567;DHT22;65428;53.194;6.132;2023-08-06T01:16:01;14.20;99.90
76567;DHT22;65428;53.194;6.132;2023-08-06T01:18:28;14.20;99.90
76567;DHT22;65428;53.194;6.132;2023-08-06T01:20:54;14.30;99.90
76567;DHT22;65428;53.194;6.132;2023-08-06T01:23:20;14.20;99.90
76567;DHT22;65428;53.194;6.132;2023-08-06T01:25:56;14.40;99.90
76567;DHT22;65428;53.194;6.132;2023-08-06T01:28:33;14.40;99.90
76567;DHT22;65428;53.194;6.132;2023-08-06T01:31:04;14.30;99.90
76567;DHT22;65428;53.194;6.132;2023-08-06T01:33:33;14.30;99.90
76567;DHT22;65428;53.194;6.132;2023-08-06T01:36:01;14.30;99.90
76567;DHT22;65428;53.194;6.132;2023-08-06T01:38:26;14.40;99.90
76567;DHT22;65428;53.194;6.132;2023-08-06T01:40:53;14.50;99.90
76567;DHT22;65428;53.194;6.132;2023-08-06T01:43:19;14.20;99.90
76567;DHT22;65428;53.194;6.132;2023-08-06T01:45:45;14.30;99.90
76567;DHT22;65428;53.194;6.132;2023-08-06T01:48:10;14.30;99.90
76567;DHT22;65428;53.194;6.132;2023-08-06T01:50:36;14.30;99.90
76567;DHT22;65428;53.194;6.132;2023-08-06T01:53:01;14.50;99.90
76567;DHT22;65428;53.194;6.132;2023-08-06T01:55:29;14.30;99.90
76567;DHT22;65428;53.194;6.132;2023-08-06T01:57:55;14.30;99.90
76567;DHT22;65428;53.194;6.132;2023-08-06T02:00:20;14.20;99.90
76567;DHT22;65428;53.194;6.132;2023-08-06T02:02:46;14.70;99.90
76567;DHT22;65428;53.194;6.132;2023-08-06T02:05:11;14.10;99.90
76567;DHT22;65428;53.194;6.132;2023-08-06T02:07:37;14.30;99.90
76567;DHT22;65428;53.194;6.132;2023-08-06T02:10:03;14.30;99.90
76567;DHT22;65428;53.194;6.132;2023-08-06T02:12:28;14.30;99.90
76567;DHT22;65428;53.194;6.132;2023-08-06T02:14:54;14.30;99.90
76567;DHT22;65428;53.194;6.132;2023-08-06T02:17:20;14.50;99.90
76567;DHT22;65428;53.194;6.132;2023-08-06T02:19:45;14.50;99.90
76567;DHT22;65428;53.194;6.132;2023-08-06T02:22:11;14.30;99.90
76567;DHT22;65428;53.194;6.132;2023-08-06T02:24:36;14.30;99.90
76567;DHT22;65428;53.194;6.132;2023-08-06T02:27:02;14.20;99.90
76567;DHT22;65428;53.194;6.132;2023-08-06T02:29:28;14.20;99.90
76567;DHT22;65428;53.194;6.132;2023-08-06T02:31:53;14.60;99.90
76567;DHT22;65428;53.194;6.132;2023-08-06T02:34:19;14.20;99.90
76567;DHT22;65428;53.194;6.132;2023-08-06T02:36:44;14.40;99.90
76567;DHT22;65428;53.194;6.132;2023-08-06T02:39:10;14.30;99.90
76567;DHT22;65428;53.194;6.132;2023-08-06T02:41:36;14.30;99.90
76567;DHT22;65428;53.194;6.132;2023-08-06T02:44:01;14.30;99.90
76567;DHT22;65428;53.194;6.132;2023-08-06T02:46:27;14.60;99.90
76567;DHT22;65428;53.194;6.132;2023-08-06T02:48:53;14.30;99.90
76567;DHT22;65428;53.194;6.132;2023-08-06T02:51:18;14.60;99.90
76567;DHT22;65428;53.194;6.132;2023-08-06T02:53:44;14.60;99.90
76567;DHT22;65428;53.194;6.132;2023-08-06T02:56:10;14.30;99.90
76567;DHT22;65428;53.194;6.132;2023-08-06T02:58:35;14.40;99.90
76567;DHT22;65428;53.194;6.132;2023-08-06T03:01:06;14.30;99.90
76567;DHT22;65428;53.194;6.132;2023-08-06T03:03:32;14.30;99.90
76567;DHT22;65428;53.194;6.132;2023-08-06T03:05:58;14.40;99.90
76567;DHT22;65428;53.194;6.132;2023-08-06T03:08:24;14.60;99.90
76567;DHT22;65428;53.194;6.132;2023-08-06T03:10:50;14.50;99.90
76567;DHT22;65428;53.194;6.132;2023-08-06T03:13:19;14.40;99.90
76567;DHT22;65428;53.194;6.132;2023-08-06T03:15:58;14.20;99.90
76567;DHT22;65428;53.194;6.132;2023-08-06T03:18:24;14.10;99.90
76567;DHT22;65428;53.194;6.132;2023-08-06T03:20:51;14.10;99.90
76567;DHT22;65428;53.194;6.132;2023-08-06T03:23:17;14.00;99.90
76567;DHT22;65428;53.194;6.132;2023-08-06T03:25:43;14.10;99.90
76567;DHT22;65428;53.194;6.132;2023-08-06T03:28:09;14.30;99.90
76567;DHT22;65428;53.194;6.132;2023-08-06T03:30:34;14.10;99.90
76567;DHT22;65428;53.194;6.132;2023-08-06T03:33:00;14.10;99.90
76567;DHT22;65428;53.194;6.132;2023-08-06T03:35:26;14.10;99.90
76567;DHT22;65428;53.194;6.132;2023-08-06T03:37:51;14.10;99.90
76567;DHT22;65428;53.194;6.132;2023-08-06T03:40:17;14.10;99.90
76567;DHT22;65428;53.194;6.132;2023-08-06T03:42:43;14.30;99.90
76567;DHT22;65428;53.194;6.132;2023-08-06T03:45:08;14.10;99.90
76567;DHT22;65428;53.194;6.132;2023-08-06T03:47:34;14.10;99.90
76567;DHT22;65428;53.194;6.132;2023-08-06T03:50:00;14.10;99.90
76567;DHT22;65428;53.194;6.132;2023-08-06T03:52:26;14.10;99.90
76567;DHT22;65428;53.194;6.132;2023-08-06T03:54:51;14.10;99.90
76567;DHT22;65428;53.194;6.132;2023-08-06T03:57:18;14.40;99.90
76567;DHT22;65428;53.194;6.132;2023-08-06T03:59:43;14.10;99.90
76567;DHT22;65428;53.194;6.132;2023-08-06T04:02:09;14.30;99.90
76567;DHT22;65428;53.194;6.132;2023-08-06T04:04:35;14.30;99.90
76567;DHT22;65428;53.194;6.132;2023-08-06T04:07:00;14.10;99.90
76567;DHT22;65428;53.194;6.132;2023-08-06T04:09:28;14.10;99.90
76567;DHT22;65428;53.194;6.132;2023-08-06T04:11:54;14.00;99.90
76567;DHT22;65428;53.194;6.132;2023-08-06T04:14:19;14.10;99.90
76567;DHT22;65428;53.194;6.132;2023-08-06T04:16:45;14.10;99.90
76567;DHT22;65428;53.194;6.132;2023-08-06T04:19:10;14.40;99.90
76567;DHT22;65428;53.194;6.132;2023-08-06T04:21:36;14.10;99.90
76567;DHT22;65428;53.194;6.132;2023-08-06T04:24:02;14.20;99.90
76567;DHT22;65428;53.194;6.132;2023-08-06T04:26:27;14.10;99.90
76567;DHT22;65428;53.194;6.132;2023-08-06T04:28:53;14.10;99.90
76567;DHT22;65428;53.194;6.132;2023-08-06T04:31:19;14.10;99.90
76567;DHT22;65428;53.194;6.132;2023-08-06T04:33:44;14.20;99.90
76567;DHT22;65428;53.194;6.132;2023-08-06T04:36:10;14.20;99.90
76567;DHT22;65428;53.194;6.132;2023-08-06T04:38:36;14.20;99.90
76567;DHT22;65428;53.194;6.132;2023-08-06T04:41:04;14.20;99.90
76567;DHT22;65428;53.194;6.132;2023-08-06T04:43:30;14.20;99.90
76567;DHT22;65428;53.194;6.132;2023-08-06T04:45:55;14.10;99.90
76567;DHT22;65428;53.194;6.132;2023-08-06T04:48:22;14.10;99.90
76567;DHT22;65428;53.194;6.132;2023-08-06T04:50:49;14.20;99.90
76567;DHT22;65428;53.194;6.132;2023-08-06T04:53:15;14.20;99.90
76567;DHT22;65428;53.194;6.132;2023-08-06T04:55:41;14.20;99.90
76567;DHT22;65428;53.194;6.132;2023-08-06T04:58:08;14.20;99.90
76567;DHT22;65428;53.194;6.132;2023-08-06T05:00:34;14.60;99.90
76567;DHT22;65428;53.194;6.132;2023-08-06T05:03:00;14.20;99.90
76567;DHT22;65428;53.194;6.132;2023-08-06T05:05:26;14.20;99.90
76567;DHT22;65428;53.194;6.132;2023-08-06T05:07:54;14.50;99.90
76567;DHT22;65428;53.194;6.132;2023-08-06T05:10:20;14.50;99.90
76567;DHT22;65428;53.194;6.132;2023-08-06T05:12:46;14.30;99.90
76567;DHT22;65428;53.194;6.132;2023-08-06T05:15:12;14.40;99.90
76567;DHT22;65428;53.194;6.132;2023-08-06T05:17:37;14.40;99.90
76567;DHT22;65428;53.194;6.132;2023-08-06T05:20:03;14.40;99.90
76567;DHT22;65428;53.194;6.132;2023-08-06T05:22:29;14.50;99.90
76567;DHT22;65428;53.194;6.132;2023-08-06T05:24:55;14.60;99.90
76567;DHT22;65428;53.194;6.132;2023-08-06T05:27:20;14.80;99.90
76567;DHT22;65428;53.194;6.132;2023-08-06T05:29:48;14.60;99.90
76567;DHT22;65428;53.194;6.132;2023-08-06T05:32:14;14.80;99.90
76567;DHT22;65428;53.194;6.132;2023-08-06T05:34:39;14.60;99.90
76567;DHT22;65428;53.194;6.132;2023-08-06T05:37:06;14.60;99.90
76567;DHT22;65428;53.194;6.132;2023-08-06T05:39:32;14.90;99.90
76567;DHT22;65428;53.194;6.132;2023-08-06T05:41:58;14.50;99.90
76567;DHT22;65428;53.194;6.132;2023-08-06T05:44:23;14.80;99.90
76567;DHT22;65428;53.194;6.132;2023-08-06T05:46:49;14.80;99.90
76567;DHT22;65428;53.194;6.132;2023-08-06T05:49:15;14.90;99.90
76567;DHT22;65428;53.194;6.132;2023-08-06T05:51:41;14.90;99.90
76567;DHT22;65428;53.194;6.132;2023-08-06T05:54:07;15.30;99.90
76567;DHT22;65428;53.194;6.132;2023-08-06T05:56:33;15.60;99.90
76567;DHT22;65428;53.194;6.132;2023-08-06T05:58:59;15.50;99.90
76567;DHT22;65428;53.194;6.132;2023-08-06T06:01:24;15.90;99.90
76567;DHT22;65428;53.194;6.132;2023-08-06T06:03:50;16.10;99.90
76567;DHT22;65428;53.194;6.132;2023-08-06T06:06:15;16.30;99.90
76567;DHT22;65428;53.194;6.132;2023-08-06T06:08:42;16.50;99.90
76567;DHT22;65428;53.194;6.132;2023-08-06T06:11:07;16.60;99.90
76567;DHT22;65428;53.194;6.132;2023-08-06T06:13:33;16.70;99.90
76567;DHT22;65428;53.194;6.132;2023-08-06T06:15:58;16.70;99.90
76567;DHT22;65428;53.194;6.132;2023-08-06T06:18:24;17.00;99.90
76567;DHT22;65428;53.194;6.132;2023-08-06T06:20:50;17.40;99.90
76567;DHT22;65428;53.194;6.132;2023-08-06T06:23:15;17.10;99.90
76567;DHT22;65428;53.194;6.132;2023-08-06T06:25:48;17.10;99.90
76567;DHT22;65428;53.194;6.132;2023-08-06T06:28:14;17.00;99.90
76567;DHT22;65428;53.194;6.132;2023-08-06T06:30:41;16.90;99.90
76567;DHT22;65428;53.194;6.132;2023-08-06T06:33:07;17.20;99.90
76567;DHT22;65428;53.194;6.132;2023-08-06T06:35:36;17.00;99.90
76567;DHT22;65428;53.194;6.132;2023-08-06T06:38:02;17.00;99.90
76567;DHT22;65428;53.194;6.132;2023-08-06T06:40:28;17.30;99.90
76567;DHT22;65428;53.194;6.132;2023-08-06T06:42:53;17.10;99.90
76567;DHT22;65428;53.194;6.132;2023-08-06T06:45:19;17.10;99.90
76567;DHT22;65428;53.194;6.132;2023-08-06T06:47:44;17.00;99.90
76567;DHT22;65428;53.194;6.132;2023-08-06T06:50:10;17.00;99.90
76567;DHT22;65428;53.194;6.132;2023-08-06T06:52:37;17.00;99.90
76567;DHT22;65428;53.194;6.132;2023-08-06T06:55:03;17.30;99.90
76567;DHT22;65428;53.194;6.132;2023-08-06T06:57:29;17.00;99.90
76567;DHT22;65428;53.194;6.132;2023-08-06T06:59:54;17.00;99.90
76567;DHT22;65428;53.194;6.132;2023-08-06T07:02:20;17.70;99.90
76567;DHT22;65428;53.194;6.132;2023-08-06T07:04:46;17.00;99.90
76567;DHT22;65428;53.194;6.132;2023-08-06T07:07:11;17.00;99.90
76567;DHT22;65428;53.194;6.132;2023-08-06T07:09:37;17.00;99.90
76567;DHT22;65428;53.194;6.132;2023-08-06T07:12:03;17.50;99.90
76567;DHT22;65428;53.194;6.132;2023-08-06T07:14:29;17.30;99.90
76567;DHT22;65428;53.194;6.132;2023-08-06T07:16:55;17.30;99.90
76567;DHT22;65428;53.194;6.132;2023-08-06T07:19:20;17.40;99.90
76567;DHT22;65428;53.194;6.132;2023-08-06T07:21:46;17.50;99.90
76567;DHT22;65428;53.194;6.132;2023-08-06T07:24:12;17.50;99.90
76567;DHT22;65428;53.194;6.132;2023-08-06T07:26:38;17.60;99.90
76567;DHT22;65428;53.194;6.132;2023-08-06T07:29:03;17.80;99.90
76567;DHT22;65428;53.194;6.132;2023-08-06T07:31:29;17.80;99.90
76567;DHT22;65428;53.194;6.132;2023-08-06T07:33:55;17.80;99.90
76567;DHT22;65428;53.194;6.132;2023-08-06T07:36:20;17.90;99.90
76567;DHT22;65428;53.194;6.132;2023-08-06T07:38:46;17.90;99.90
76567;DHT22;65428;53.194;6.132;2023-08-06T07:41:14;18.00;99.90
76567;DHT22;65428;53.194;6.132;2023-08-06T07:43:39;18.00;99.90
76567;DHT22;65428;53.194;6.132;2023-08-06T07:46:05;18.10;99.90
76567;DHT22;65428;53.194;6.132;2023-08-06T07:48:31;18.20;99.90
76567;DHT22;65428;53.194;6.132;2023-08-06T07:50:57;18.10;99.90
76567;DHT22;65428;53.194;6.132;2023-08-06T07:53:24;18.50;99.90
76567;DHT22;65428;53.194;6.132;2023-08-06T07:55:53;18.60;99.90
76567;DHT22;65428;53.194;6.132;2023-08-06T07:58:19;18.60;99.90
76567;DHT22;65428;53.194;6.132;2023-08-06T08:00:46;18.60;99.90
76567;DHT22;65428;53.194;6.132;2023-08-06T08:03:12;18.60;99.90
76567;DHT22;65428;53.194;6.132;2023-08-06T08:05:42;18.80;99.90
76567;DHT22;65428;53.194;6.132;2023-08-06T08:08:08;19.00;99.90
76567;DHT22;65428;53.194;6.132;2023-08-06T08:10:34;19.20;99.90
76567;DHT22;65428;53.194;6.132;2023-08-06T08:13:01;19.60;99.90
76567;DHT22;65428;53.194;6.132;2023-08-06T08:15:28;19.70;99.90
76567;DHT22;65428;53.194;6.132;2023-08-06T08:17:54;20.00;99.90
76567;DHT22;65428;53.194;6.132;2023-08-06T08:20:20;20.00;99.90
76567;DHT22;65428;53.194;6.132;2023-08-06T08:22:46;20.10;99.90
76567;DHT22;65428;53.194;6.132;2023-08-06T08:25:12;20.20;99.90
76567;DHT22;65428;53.194;6.132;2023-08-06T08:27:38;20.70;99.90
76567;DHT22;65428;53.194;6.132;2023-08-06T08:30:04;20.40;99.90
76567;DHT22;65428;53.194;6.132;2023-08-06T08:32:30;20.40;99.90
76567;DHT22;65428;53.194;6.132;2023-08-06T08:34:56;20.40;99.90
76567;DHT22;65428;53.194;6.132;2023-08-06T08:37:23;20.60;99.90
76567;DHT22;65428;53.194;6.132;2023-08-06T08:39:49;20.20;99.90
76567;DHT22;65428;53.194;6.132;2023-08-06T08:42:15;20.20;99.90
76567;DHT22;65428;53.194;6.132;2023-08-06T08:44:42;20.10;99.90
76567;DHT22;65428;53.194;6.132;2023-08-06T08:47:09;20.20;99.90
76567;DHT22;65428;53.194;6.132;2023-08-06T08:49:36;19.90;99.90
76567;DHT22;65428;53.194;6.132;2023-08-06T08:52:03;20.00;99.90
76567;DHT22;65428;53.194;6.132;2023-08-06T08:54:32;20.00;99.90
76567;DHT22;65428;53.194;6.132;2023-08-06T08:56:58;20.10;99.90
76567;DHT22;65428;53.194;6.132;2023-08-06T08:59:24;20.10;99.90
76567;DHT22;65428;53.194;6.132;2023-08-06T09:01:50;20.30;99.90
76567;DHT22;65428;53.194;6.132;2023-08-06T09:04:18;20.80;99.90
76567;DHT22;65428;53.194;6.132;2023-08-06T09:06:47;21.10;99.90
76567;DHT22;65428;53.194;6.132;2023-08-06T09:09:31;21.70;99.90
76567;DHT22;65428;53.194;6.132;2023-08-06T09:12:01;21.50;99.90
76567;DHT22;65428;53.194;6.132;2023-08-06T09:14:27;21.70;99.90
76567;DHT22;65428;53.194;6.132;2023-08-06T09:16:54;21.70;99.90
76567;DHT22;65428;53.194;6.132;2023-08-06T09:19:20;21.60;99.90
76567;DHT22;65428;53.194;6.132;2023-08-06T09:21:46;21.50;99.90
76567;DHT22;65428;53.194;6.132;2023-08-06T09:24:14;21.60;99.90
76567;DHT22;65428;53.194;6.132;2023-08-06T09:26:43;21.70;99.90
76567;DHT22;65428;53.194;6.132;2023-08-06T09:29:09;21.80;99.90
76567;DHT22;65428;53.194;6.132;2023-08-06T09:31:48;22.00;99.90
76567;DHT22;65428;53.194;6.132;2023-08-06T09:34:21;22.20;98.40
76567;DHT22;65428;53.194;6.132;2023-08-06T09:36:53;22.30;99.90
76567;DHT22;65428;53.194;6.132;2023-08-06T09:39:26;22.60;99.90
76567;DHT22;65428;53.194;6.132;2023-08-06T09:42:00;23.00;97.40
76567;DHT22;65428;53.194;6.132;2023-08-06T09:44:27;23.00;93.90
76567;DHT22;65428;53.194;6.132;2023-08-06T09:46:58;22.90;94.10
76567;DHT22;65428;53.194;6.132;2023-08-06T09:51:59;22.90;96.20
76567;DHT22;65428;53.194;6.132;2023-08-06T09:54:28;22.80;99.90
76567;DHT22;65428;53.194;6.132;2023-08-06T09:56:56;22.90;99.90
76567;DHT22;65428;53.194;6.132;2023-08-06T09:59:25;22.60;99.90
76567;DHT22;65428;53.194;6.132;2023-08-06T10:01:51;22.50;99.90
76567;DHT22;65428;53.194;6.132;2023-08-06T10:04:17;23.00;99.90
76567;DHT22;65428;53.194;6.132;2023-08-06T10:06:46;22.80;99.90
76567;DHT22;65428;53.194;6.132;2023-08-06T10:09:13;23.10;99.90
76567;DHT22;65428;53.194;6.132;2023-08-06T10:11:39;23.00;93.60
76567;DHT22;65428;53.194;6.132;2023-08-06T10:14:14;22.90;99.90
76567;DHT22;65428;53.194;6.132;2023-08-06T10:16:42;23.10;94.40
76567;DHT22;65428;53.194;6.132;2023-08-06T10:19:09;23.10;99.90
76567;DHT22;65428;53.194;6.132;2023-08-06T10:21:37;23.20;98.80
76567;DHT22;65428;53.194;6.132;2023-08-06T10:24:07;23.10;93.60
76567;DHT22;65428;53.194;6.132;2023-08-06T10:26:35;23.20;99.90
76567;DHT22;65428;53.194;6.132;2023-08-06T10:29:00;23.20;81.10
76567;DHT22;65428;53.194;6.132;2023-08-06T10:31:54;23.40;96.10
76567;DHT22;65428;53.194;6.132;2023-08-06T10:34:21;23.50;95.90
76567;DHT22;65428;53.194;6.132;2023-08-06T10:36:46;23.50;86.40
76567;DHT22;65428;53.194;6.132;2023-08-06T10:39:15;23.70;79.70
76567;DHT22;65428;53.194;6.132;2023-08-06T10:41:42;24.00;84.40
76567;DHT22;65428;53.194;6.132;2023-08-06T10:44:10;24.10;83.90
76567;DHT22;65428;53.194;6.132;2023-08-06T10:46:37;24.20;89.40
76567;DHT22;65428;53.194;6.132;2023-08-06T10:49:03;24.20;71.40
76567;DHT22;65428;53.194;6.132;2023-08-06T10:51:30;24.20;77.80
76567;DHT22;65428;53.194;6.132;2023-08-06T10:53:56;24.30;77.80
76567;DHT22;65428;53.194;6.132;2023-08-06T10:56:24;24.30;76.30
76567;DHT22;65428;53.194;6.132;2023-08-06T10:58:56;24.20;84.00
76567;DHT22;65428;53.194;6.132;2023-08-06T11:01:23;23.90;75.20
76567;DHT22;65428;53.194;6.132;2023-08-06T11:03:49;23.90;78.30
76567;DHT22;65428;53.194;6.132;2023-08-06T11:06:22;23.80;72.10
76567;DHT22;65428;53.194;6.132;2023-08-06T11:08:53;23.60;71.60
76567;DHT22;65428;53.194;6.132;2023-08-06T11:11:20;23.70;98.60
76567;DHT22;65428;53.194;6.132;2023-08-06T11:13:47;23.70;99.90
76567;DHT22;65428;53.194;6.132;2023-08-06T11:16:18;23.70;91.30
76567;DHT22;65428;53.194;6.132;2023-08-06T11:18:44;23.50;91.80
76567;DHT22;65428;53.194;6.132;2023-08-06T11:21:10;23.30;90.00
76567;DHT22;65428;53.194;6.132;2023-08-06T11:23:40;22.70;88.90
76567;DHT22;65428;53.194;6.132;2023-08-06T11:26:06;22.60;99.00
76567;DHT22;65428;53.194;6.132;2023-08-06T11:28:32;22.50;97.90
76567;DHT22;65428;53.194;6.132;2023-08-06T11:30:58;22.40;94.30
76567;DHT22;65428;53.194;6.132;2023-08-06T11:33:27;22.30;99.90
76567;DHT22;65428;53.194;6.132;2023-08-06T11:35:58;22.20;99.90
76567;DHT22;65428;53.194;6.132;2023-08-06T11:38:28;22.20;99.90
76567;DHT22;65428;53.194;6.132;2023-08-06T11:40:54;21.80;99.50
76567;DHT22;65428;53.194;6.132;2023-08-06T11:43:20;21.90;97.80
76567;DHT22;65428;53.194;6.132;2023-08-06T11:45:48;21.90;99.90
76567;DHT22;65428;53.194;6.132;2023-08-06T11:48:14;21.80;99.90
76567;DHT22;65428;53.194;6.132;2023-08-06T11:50:40;22.10;99.90
76567;DHT22;65428;53.194;6.132;2023-08-06T11:53:05;21.90;99.90
76567;DHT22;65428;53.194;6.132;2023-08-06T11:55:31;22.20;99.90
76567;DHT22;65428;53.194;6.132;2023-08-06T11:57:57;21.80;99.90
76567;DHT22;65428;53.194;6.132;2023-08-06T12:00:24;21.80;99.90
76567;DHT22;65428;53.194;6.132;2023-08-06T12:02:50;21.80;99.90
76567;DHT22;65428;53.194;6.132;2023-08-06T12:05:29;22.20;99.90
76567;DHT22;65428;53.194;6.132;2023-08-06T12:07:59;22.70;99.90
76567;DHT22;65428;53.194;6.132;2023-08-06T12:10:26;22.70;99.90
76567;DHT22;65428;53.194;6.132;2023-08-06T12:12:53;23.50;99.90
76567;DHT22;65428;53.194;6.132;2023-08-06T12:15:19;24.20;97.40
76567;DHT22;65428;53.194;6.132;2023-08-06T12:17:44;24.70;90.50
76567;DHT22;65428;53.194;6.132;2023-08-06T12:20:10;24.90;71.30
76567;DHT22;65428;53.194;6.132;2023-08-06T12:22:37;25.40;76.40
76567;DHT22;65428;53.194;6.132;2023-08-06T12:25:07;25.50;76.40
76567;DHT22;65428;53.194;6.132;2023-08-06T12:27:37;25.40;64.60
76567;DHT22;65428;53.194;6.132;2023-08-06T12:30:04;25.10;71.50
76567;DHT22;65428;53.194;6.132;2023-08-06T12:32:30;24.80;69.50
76567;DHT22;65428;53.194;6.132;2023-08-06T12:34:56;24.80;69.60
76567;DHT22;65428;53.194;6.132;2023-08-06T12:37:21;25.00;71.80
76567;DHT22;65428;53.194;6.132;2023-08-06T12:39:48;25.10;66.00
76567;DHT22;65428;53.194;6.132;2023-08-06T12:42:14;25.00;73.80
76567;DHT22;65428;53.194;6.132;2023-08-06T12:44:39;24.60;69.00
76567;DHT22;65428;53.194;6.132;2023-08-06T12:47:06;24.10;67.80
76567;DHT22;65428;53.194;6.132;2023-08-06T12:49:32;24.00;73.60
76567;DHT22;65428;53.194;6.132;2023-08-06T12:51:58;24.60;73.90
76567;DHT22;65428;53.194;6.132;2023-08-06T12:54:25;24.60;75.70
76567;DHT22;65428;53.194;6.132;2023-08-06T12:56:51;24.90;69.60
76567;DHT22;65428;53.194;6.132;2023-08-06T12:59:18;25.70;93.40
76567;DHT22;65428;53.194;6.132;2023-08-06T13:01:44;25.60;72.40
76567;DHT22;65428;53.194;6.132;2023-08-06T13:04:10;25.40;68.10
76567;DHT22;65428;53.194;6.132;2023-08-06T13:06:37;25.20;66.10
76567;DHT22;65428;53.194;6.132;2023-08-06T13:09:03;25.40;67.10
76567;DHT22;65428;53.194;6.132;2023-08-06T13:11:30;25.30;71.40
76567;DHT22;65428;53.194;6.132;2023-08-06T13:14:03;25.80;72.50
76567;DHT22;65428;53.194;6.132;2023-08-06T13:16:29;26.40;68.50
76567;DHT22;65428;53.194;6.132;2023-08-06T13:18:54;26.90;65.60
76567;DHT22;65428;53.194;6.132;2023-08-06T13:21:20;27.50;59.80
76567;DHT22;65428;53.194;6.132;2023-08-06T13:23:46;27.60;60.50
76567;DHT22;65428;53.194;6.132;2023-08-06T13:26:15;28.00;61.20
76567;DHT22;65428;53.194;6.132;2023-08-06T13:28:41;28.10;59.80
76567;DHT22;65428;53.194;6.132;2023-08-06T13:31:08;28.20;53.50
76567;DHT22;65428;53.194;6.132;2023-08-06T13:33:33;28.30;56.60
76567;DHT22;65428;53.194;6.132;2023-08-06T13:35:59;28.50;54.50
76567;DHT22;65428;53.194;6.132;2023-08-06T13:38:24;28.60;49.80
76567;DHT22;65428;53.194;6.132;2023-08-06T13:40:50;28.70;51.30
76567;DHT22;65428;53.194;6.132;2023-08-06T13:43:16;28.70;52.50
76567;DHT22;65428;53.194;6.132;2023-08-06T13:45:44;28.20;51.70
76567;DHT22;65428;53.194;6.132;2023-08-06T13:48:10;27.90;51.80
76567;DHT22;65428;53.194;6.132;2023-08-06T13:50:36;27.60;56.10
76567;DHT22;65428;53.194;6.132;2023-08-06T13:53:02;27.60;53.40
76567;DHT22;65428;53.194;6.132;2023-08-06T13:55:28;28.00;55.00
76567;DHT22;65428;53.194;6.132;2023-08-06T13:57:55;27.80;53.80
76567;DHT22;65428;53.194;6.132;2023-08-06T14:00:21;27.40;56.30
76567;DHT22;65428;53.194;6.132;2023-08-06T14:02:47;27.20;56.20
76567;DHT22;65428;53.194;6.132;2023-08-06T14:05:13;27.20;55.90
76567;DHT22;65428;53.194;6.132;2023-08-06T14:07:38;27.50;55.60
76567;DHT22;65428;53.194;6.132;2023-08-06T14:10:04;27.30;54.30
76567;DHT22;65428;53.194;6.132;2023-08-06T14:12:31;27.20;56.70
76567;DHT22;65428;53.194;6.132;2023-08-06T14:14:57;27.50;55.30
76567;DHT22;65428;53.194;6.132;2023-08-06T14:17:22;27.50;53.70
76567;DHT22;65428;53.194;6.132;2023-08-06T14:19:48;27.20;56.20
76567;DHT22;65428;53.194;6.132;2023-08-06T14:22:14;26.80;53.10
76567;DHT22;65428;53.194;6.132;2023-08-06T14:24:39;26.80;55.50
76567;DHT22;65428;53.194;6.132;2023-08-06T14:27:06;27.50;56.40
76567;DHT22;65428;53.194;6.132;2023-08-06T14:29:31;27.70;51.50
76567;DHT22;65428;53.194;6.132;2023-08-06T14:31:57;27.30;54.50
76567;DHT22;65428;53.194;6.132;2023-08-06T14:34:23;26.70;54.00
76567;DHT22;65428;53.194;6.132;2023-08-06T14:36:48;25.90;52.60
76567;DHT22;65428;53.194;6.132;2023-08-06T14:39:14;25.30;55.20
76567;DHT22;65428;53.194;6.132;2023-08-06T14:41:39;24.70;56.00
76567;DHT22;65428;53.194;6.132;2023-08-06T14:44:05;24.30;60.50
76567;DHT22;65428;53.194;6.132;2023-08-06T14:46:32;24.10;65.40
76567;DHT22;65428;53.194;6.132;2023-08-06T14:48:58;24.00;64.90
76567;DHT22;65428;53.194;6.132;2023-08-06T14:51:24;23.90;67.80
76567;DHT22;65428;53.194;6.132;2023-08-06T14:53:49;24.10;67.30
76567;DHT22;65428;53.194;6.132;2023-08-06T14:56:15;23.60;66.10
76567;DHT22;65428;53.194;6.132;2023-08-06T14:58:41;23.40;66.20
76567;DHT22;65428;53.194;6.132;2023-08-06T15:01:07;23.10;67.30
76567;DHT22;65428;53.194;6.132;2023-08-06T15:03:33;23.00;69.40
76567;DHT22;65428;53.194;6.132;2023-08-06T15:06:01;22.60;74.70
76567;DHT22;65428;53.194;6.132;2023-08-06T15:08:27;22.50;90.70
76567;DHT22;65428;53.194;6.132;2023-08-06T15:10:53;22.40;75.40
76567;DHT22;65428;53.194;6.132;2023-08-06T15:13:19;22.70;73.70
76567;DHT22;65428;53.194;6.132;2023-08-06T15:15:47;22.10;79.60
76567;DHT22;65428;53.194;6.132;2023-08-06T15:18:12;22.00;81.80
76567;DHT22;65428;53.194;6.132;2023-08-06T15:20:38;21.90;80.90
76567;DHT22;65428;53.194;6.132;2023-08-06T15:23:03;21.80;73.60
76567;DHT22;65428;53.194;6.132;2023-08-06T15:25:29;21.60;73.10
76567;DHT22;65428;53.194;6.132;2023-08-06T15:27:55;21.50;75.00
76567;DHT22;65428;53.194;6.132;2023-08-06T15:30:27;21.40;77.10
76567;DHT22;65428;53.194;6.132;2023-08-06T15:32:52;21.30;72.60
76567;DHT22;65428;53.194;6.132;2023-08-06T15:35:18;21.10;83.60